createdAt,value
2017-02-14T00:01:41.610Z,58.13
2017-02-14T00:03:38.874Z,58.2
2017-02-14T00:05:36.150Z,58.25
2017-02-14T00:07:28.515Z,58.28
2017-02-14T00:09:30.722Z,58.27
2017-02-14T00:11:28.540Z,58.26
2017-02-14T00:13:31.213Z,58.26
2017-02-14T00:15:28.693Z,58.28
2017-02-14T00:17:31.051Z,58.29
2017-02-14T00:19:18.384Z,58.31
2017-02-14T00:21:06.013Z,58.36
2017-02-14T00:22:58.356Z,58.37
2017-02-14T00:24:50.700Z,58.39
2017-02-14T00:27:03.579Z,58.38
2017-02-14T00:29:06.144Z,58.4
2017-02-14T00:31:03.366Z,58.41
2017-02-14T00:33:00.890Z,58.43
2017-02-14T00:34:58.242Z,58.44
2017-02-14T00:36:50.561Z,58.42
2017-02-14T00:39:02.857Z,58.44
2017-02-14T00:41:00.154Z,58.39
2017-02-14T00:42:57.496Z,58.38
2017-02-14T00:44:49.824Z,58.4
2017-02-14T00:46:42.486Z,58.41
2017-02-14T00:48:44.770Z,58.32
2017-02-14T00:50:37.242Z,58.31
2017-02-14T00:52:29.635Z,58.29
2017-02-14T00:54:22.123Z,58.29
2017-02-14T00:56:19.330Z,58.3
2017-02-14T00:58:11.664Z,58.32
2017-02-14T01:00:13.907Z,58.35
2017-02-14T01:02:21.197Z,58.4
2017-02-14T01:04:23.586Z,58.43
2017-02-14T01:06:25.795Z,58.44
2017-02-14T01:08:18.301Z,58.45
2017-02-14T01:10:20.802Z,58.45
2017-02-14T01:12:28.106Z,58.45
2017-02-14T01:14:25.424Z,58.45
2017-02-14T01:16:22.844Z,58.44
2017-02-14T01:18:20.206Z,58.44
2017-02-14T01:20:23.210Z,58.45
2017-02-14T01:22:20.899Z,58.46
2017-02-14T01:24:28.295Z,58.44
2017-02-14T01:26:25.589Z,58.45
2017-02-14T01:28:22.903Z,58.39
2017-02-14T01:30:15.346Z,58.34
2017-02-14T01:32:12.666Z,58.32
2017-02-14T01:33:59.944Z,58.35
2017-02-14T01:36:07.288Z,58.31
2017-02-14T01:38:04.619Z,58.29
2017-02-14T01:40:02.033Z,58.29
2017-02-14T01:41:54.287Z,58.33
2017-02-14T01:43:41.658Z,58.32
2017-02-14T01:45:29.158Z,58.38
2017-02-14T01:47:21.397Z,58.35
2017-02-14T01:49:13.808Z,58.22
2017-02-14T01:51:11.101Z,58.09
2017-02-14T01:53:13.541Z,58.01
2017-02-14T01:55:21.469Z,58.02
2017-02-14T01:57:23.678Z,58.03
2017-02-14T01:59:16.024Z,58.04
2017-02-14T02:01:08.448Z,57.97
2017-02-14T02:02:55.925Z,57.93
2017-02-14T02:04:53.157Z,57.9
2017-02-14T02:06:40.531Z,57.88
2017-02-14T02:08:32.792Z,57.88
2017-02-14T02:10:30.131Z,57.87
2017-02-14T02:12:27.569Z,57.85
2017-02-14T02:14:05.003Z,57.86
2017-02-14T02:16:02.426Z,57.87
2017-02-14T02:18:09.672Z,57.89
2017-02-14T02:20:01.930Z,57.9
2017-02-14T02:21:54.210Z,57.91
2017-02-14T02:23:51.715Z,57.95
2017-02-14T02:25:39.052Z,57.96
2017-02-14T02:27:41.785Z,58
2017-02-14T02:29:49.459Z,58.04
2017-02-14T02:31:31.798Z,58.06
2017-02-14T02:33:24.164Z,58.13
2017-02-14T02:35:21.502Z,58.15
2017-02-14T02:37:23.907Z,58.19
2017-02-14T02:39:36.150Z,58.22
2017-02-14T02:41:33.426Z,58.25
2017-02-14T02:43:30.821Z,58.29
2017-02-14T02:45:43.222Z,58.3
2017-02-14T02:47:40.707Z,58.37
2017-02-14T02:49:33.039Z,58.33
2017-02-14T02:51:30.420Z,58.29
2017-02-14T02:53:32.714Z,58.17
2017-02-14T02:55:25.029Z,58.1
2017-02-14T02:57:17.416Z,58.06
2017-02-14T02:59:24.770Z,58.11
2017-02-14T03:01:27.396Z,58.13
2017-02-14T03:03:40.151Z,58.16
2017-02-14T03:05:37.620Z,58.2
2017-02-14T03:07:29.924Z,58.23
2017-02-14T03:09:32.225Z,58.26
2017-02-14T03:11:39.494Z,58.21
2017-02-14T03:13:41.847Z,58.14
2017-02-14T03:15:39.228Z,58.06
2017-02-14T03:17:46.567Z,58.03
2017-02-14T03:19:48.804Z,58.04
2017-02-14T03:21:36.174Z,58.06
2017-02-14T03:23:28.547Z,58.11
2017-02-14T03:25:35.914Z,58.22
2017-02-14T03:27:28.288Z,58.27
2017-02-14T03:29:20.763Z,58.17
2017-02-14T03:31:13.035Z,57.99
2017-02-14T03:33:10.319Z,57.9
2017-02-14T03:35:02.724Z,57.88
2017-02-14T03:37:10.711Z,57.88
2017-02-14T03:39:18.067Z,57.87
2017-02-14T03:41:15.422Z,57.9
2017-02-14T03:43:02.706Z,57.89
2017-02-14T03:45:00.003Z,57.87
2017-02-14T03:47:07.239Z,57.85
2017-02-14T03:49:04.521Z,57.85
2017-02-14T03:51:06.932Z,57.83
2017-02-14T03:53:04.136Z,57.79
2017-02-14T03:55:16.342Z,57.69
2017-02-14T03:57:13.741Z,57.61
2017-02-14T03:59:11.072Z,57.65
2017-02-14T04:01:03.684Z,57.67
2017-02-14T04:03:00.902Z,57.68
2017-02-14T04:04:48.245Z,57.67
2017-02-14T04:06:50.635Z,57.66
2017-02-14T04:08:43.073Z,57.64
2017-02-14T04:10:45.853Z,57.64
2017-02-14T04:12:58.430Z,57.63
2017-02-14T04:15:00.803Z,57.63
2017-02-14T04:16:53.086Z,57.62
2017-02-14T04:18:50.385Z,57.62
2017-02-14T04:20:42.741Z,57.64
2017-02-14T04:22:55.291Z,57.64
2017-02-14T04:24:52.722Z,57.63
2017-02-14T04:26:50.032Z,57.64
2017-02-14T04:28:42.349Z,57.64
2017-02-14T04:30:29.797Z,57.64
2017-02-14T04:32:22.343Z,57.63
2017-02-14T04:34:19.674Z,57.61
2017-02-14T04:36:17.008Z,57.6
2017-02-14T04:38:19.435Z,57.61
2017-02-14T04:40:06.754Z,57.61
2017-02-14T04:42:09.189Z,57.62
2017-02-14T04:43:57.053Z,57.61
2017-02-14T04:46:00.164Z,57.57
2017-02-14T04:48:07.592Z,57.54
2017-02-14T04:49:55.073Z,57.57
2017-02-14T04:51:57.333Z,57.57
2017-02-14T04:54:04.846Z,57.58
2017-02-14T04:55:57.295Z,57.56
2017-02-14T04:57:44.730Z,57.58
2017-02-14T04:59:37.102Z,57.61
2017-02-14T05:01:39.422Z,57.62
2017-02-14T05:03:36.737Z,57.63
2017-02-14T05:05:24.354Z,57.64
2017-02-14T05:07:21.730Z,57.63
2017-02-14T05:09:14.116Z,57.62
2017-02-14T05:11:21.571Z,57.64
2017-02-14T05:13:33.955Z,57.65
2017-02-14T05:15:36.297Z,57.64
2017-02-14T05:17:33.642Z,57.63
2017-02-14T05:19:41.595Z,57.66
2017-02-14T05:21:39.227Z,57.68
2017-02-14T05:23:41.511Z,57.76
2017-02-14T05:25:43.919Z,57.76
2017-02-14T05:27:36.316Z,57.78
2017-02-14T05:29:23.654Z,57.83
2017-02-14T05:31:30.941Z,57.86
2017-02-14T05:33:23.213Z,57.79
2017-02-14T05:35:15.455Z,57.87
2017-02-14T05:37:12.752Z,57.95
2017-02-14T05:39:15.013Z,57.99
2017-02-14T05:41:22.476Z,57.98
2017-02-14T05:43:19.755Z,57.98
2017-02-14T05:45:27.085Z,58
2017-02-14T05:47:29.376Z,57.99
2017-02-14T05:49:31.828Z,57.98
2017-02-14T05:51:24.231Z,58.02
2017-02-14T05:53:16.761Z,58.08
2017-02-14T05:55:24.687Z,58.08
2017-02-14T05:57:27.461Z,58.09
2017-02-14T05:59:24.879Z,58.13
2017-02-14T06:01:17.158Z,58.14
2017-02-14T06:03:14.756Z,58.13
2017-02-14T06:05:17.081Z,58.09
2017-02-14T06:07:19.410Z,58.13
2017-02-14T06:09:21.716Z,58.19
2017-02-14T06:11:14.175Z,58.21
2017-02-14T06:13:26.478Z,58.23
2017-02-14T06:15:23.839Z,58.23
2017-02-14T06:17:16.158Z,58.24
2017-02-14T06:19:18.514Z,58.25
2017-02-14T06:21:26.042Z,58.21
2017-02-14T06:23:18.430Z,58.25
2017-02-14T06:25:05.845Z,58.21
2017-02-14T06:27:03.216Z,58.2
2017-02-14T06:29:10.932Z,58.2
2017-02-14T06:30:58.681Z,58.23
2017-02-14T06:33:01.226Z,58.23
2017-02-14T06:35:03.529Z,58.22
2017-02-14T06:37:00.878Z,58.22
2017-02-14T06:38:58.342Z,58.21
2017-02-14T06:41:00.725Z,58.18
2017-02-14T06:43:08.104Z,58.11
2017-02-14T06:45:10.488Z,58.04
2017-02-14T06:47:07.690Z,58.06
2017-02-14T06:49:00.075Z,58.05
2017-02-14T06:50:57.332Z,58.07
2017-02-14T06:52:59.717Z,57.96
2017-02-14T06:55:07.093Z,57.93
2017-02-14T06:57:14.348Z,57.94
2017-02-14T06:59:16.663Z,57.98
2017-02-14T07:01:14.010Z,58.03
2017-02-14T07:03:06.262Z,58.02
2017-02-14T07:05:13.808Z,57.94
2017-02-14T07:07:16.236Z,57.91
2017-02-14T07:09:03.543Z,57.87
2017-02-14T07:11:10.857Z,57.85
2017-02-14T07:13:03.345Z,57.76
2017-02-14T07:14:50.657Z,57.72
2017-02-14T07:16:53.089Z,57.68
2017-02-14T07:18:45.429Z,57.68
2017-02-14T07:20:57.648Z,57.66
2017-02-14T07:22:59.928Z,57.56
2017-02-14T07:25:07.380Z,57.47
2017-02-14T07:27:09.754Z,57.51
2017-02-14T07:29:02.159Z,57.46
2017-02-14T07:30:54.506Z,57.44
2017-02-14T07:32:47.008Z,57.35
2017-02-14T07:34:44.530Z,57.36
2017-02-14T07:36:46.929Z,57.37
2017-02-14T07:38:34.320Z,57.36
2017-02-14T07:40:31.643Z,57.32
2017-02-14T07:42:34.274Z,57.25
2017-02-14T07:44:31.978Z,57.21
2017-02-14T07:46:29.239Z,57.15
2017-02-14T07:48:21.611Z,57.11
2017-02-14T07:50:19.025Z,56.94
2017-02-14T07:52:16.617Z,56.84
2017-02-14T07:54:18.942Z,56.77
2017-02-14T07:56:16.158Z,56.74
2017-02-14T07:58:08.532Z,56.66
2017-02-14T08:00:05.864Z,56.58
2017-02-14T08:02:03.208Z,56.47
2017-02-14T08:04:05.438Z,56.49
2017-02-14T08:06:07.745Z,56.46
2017-02-14T08:08:09.963Z,56.31
2017-02-14T08:10:02.265Z,56.21
2017-02-14T08:11:54.656Z,56.18
2017-02-14T08:13:57.039Z,56.04
2017-02-14T08:15:54.277Z,55.97
2017-02-14T08:18:01.734Z,55.86
2017-02-14T08:19:59.308Z,55.68
2017-02-14T08:21:51.540Z,55.49
2017-02-14T08:23:48.813Z,55.47
2017-02-14T08:25:51.155Z,55.43
2017-02-14T08:27:48.374Z,55.44
2017-02-14T08:29:40.718Z,55.46
2017-02-14T08:31:37.949Z,55.47
2017-02-14T08:33:35.382Z,55.47
2017-02-14T08:35:32.847Z,55.36
2017-02-14T08:37:30.169Z,55.27
2017-02-14T08:39:37.455Z,55.19
2017-02-14T08:41:34.777Z,55.31
2017-02-14T08:43:37.185Z,55.22
2017-02-14T08:45:39.535Z,55.03
2017-02-14T08:47:26.940Z,54.97
2017-02-14T08:49:29.254Z,54.8
2017-02-14T08:51:36.532Z,54.74
2017-02-14T08:53:28.765Z,54.62
2017-02-14T08:55:30.940Z,54.48
2017-02-14T08:57:38.341Z,54.27
2017-02-14T08:59:40.578Z,54.02
2017-02-14T09:01:37.783Z,53.79
2017-02-14T09:03:35.276Z,53.63
2017-02-14T09:05:27.635Z,53.52
2017-02-14T09:07:29.929Z,53.42
2017-02-14T09:09:17.209Z,53.33
2017-02-14T09:11:19.690Z,53.38
2017-02-14T09:13:16.911Z,53.57
2017-02-14T09:15:24.272Z,53.87
2017-02-14T09:17:11.573Z,54.04
2017-02-14T09:19:08.815Z,53.93
2017-02-14T09:21:06.353Z,53.66
2017-02-14T09:23:08.787Z,53.38
2017-02-14T09:25:16.127Z,53.17
2017-02-14T09:27:13.439Z,53.04
2017-02-14T09:29:10.765Z,53.01
2017-02-14T09:31:18.143Z,52.98
2017-02-14T09:33:10.645Z,53.02
2017-02-14T09:35:02.889Z,52.9
2017-02-14T09:36:55.450Z,52.56
2017-02-14T09:39:07.627Z,52.04
2017-02-14T09:40:49.943Z,51.65
2017-02-14T09:42:47.217Z,51.31
2017-02-14T09:44:40.639Z,51.22
2017-02-14T09:46:38.030Z,51.57
2017-02-14T09:48:35.250Z,51.88
2017-02-14T09:50:42.861Z,51.63
2017-02-14T09:52:30.377Z,51.23
2017-02-14T09:54:32.604Z,50.78
2017-02-14T09:56:30.049Z,50.46
2017-02-14T09:58:27.457Z,50.39
2017-02-14T10:00:24.675Z,50.75
2017-02-14T10:02:12.057Z,50.65
2017-02-14T10:04:19.570Z,50.55
2017-02-14T10:06:11.842Z,50.88
2017-02-14T10:08:09.505Z,50.85
2017-02-14T10:10:01.798Z,50.49
2017-02-14T10:11:54.073Z,50.1
2017-02-14T10:13:46.460Z,49.92
2017-02-14T10:15:38.839Z,49.84
2017-02-14T10:17:36.164Z,49.59
2017-02-14T10:19:28.631Z,49.5
2017-02-14T10:21:15.926Z,48.98
2017-02-14T10:23:18.199Z,48.41
2017-02-14T10:25:10.639Z,47.85
2017-02-14T10:27:07.970Z,47.22
2017-02-14T10:28:55.431Z,45.31
2017-02-14T10:30:53.555Z,41.62
2017-02-14T10:32:55.866Z,41.27
2017-02-14T10:34:53.315Z,40.82
2017-02-14T10:36:50.645Z,38.26
2017-02-14T10:38:52.982Z,37.2
2017-02-14T10:40:55.308Z,36.62
2017-02-14T10:42:57.820Z,35.67
2017-02-14T10:44:40.202Z,36.46
2017-02-14T10:46:42.495Z,36.19
2017-02-14T10:48:39.741Z,35.65
2017-02-14T10:50:36.965Z,35.2
2017-02-14T10:52:34.262Z,34.93
2017-02-14T10:54:27.171Z,34.88
2017-02-14T10:56:19.561Z,34.5
2017-02-14T10:58:06.915Z,34.29
2017-02-14T11:00:09.283Z,33.98
2017-02-14T11:02:11.759Z,33.72
2017-02-14T11:04:19.340Z,33.54
2017-02-14T11:06:21.837Z,33.51
2017-02-14T11:08:09.263Z,33.52
2017-02-14T11:10:06.716Z,33.36
2017-02-14T11:12:04.081Z,33.32
2017-02-14T11:14:06.465Z,33.13
2017-02-14T11:16:08.728Z,32.96
2017-02-14T11:18:06.263Z,32.93
2017-02-14T11:20:03.683Z,32.5
2017-02-14T11:22:06.217Z,32.5
2017-02-14T11:24:08.587Z,32.52
2017-02-14T11:26:10.837Z,32.4
2017-02-14T11:28:08.094Z,32.48
2017-02-14T11:30:15.287Z,32.27
2017-02-14T11:32:02.566Z,32.28
2017-02-14T11:34:04.907Z,32.03
2017-02-14T11:36:07.220Z,32
2017-02-14T11:38:14.588Z,31.97
2017-02-14T11:40:16.993Z,32.12
2017-02-14T11:42:19.311Z,32.87
2017-02-14T11:44:26.502Z,32.23
2017-02-14T11:46:28.797Z,32.12
2017-02-14T11:48:21.927Z,32.87
2017-02-14T11:50:27.807Z,32.6
2017-02-14T11:52:25.222Z,32.42
2017-02-14T11:54:27.483Z,32.44
2017-02-14T11:56:26.252Z,32.41
2017-02-14T11:58:31.124Z,32.67
2017-02-14T12:00:29.299Z,32.63
2017-02-14T12:02:21.654Z,32.59
2017-02-14T12:04:23.983Z,33.67
2017-02-14T12:06:11.428Z,33.52
2017-02-14T12:08:18.576Z,33.37
2017-02-14T12:10:20.853Z,32.96
2017-02-14T12:12:23.071Z,33
2017-02-14T12:14:10.427Z,32.96
2017-02-14T12:16:02.647Z,33.15
2017-02-14T12:18:04.846Z,33.12
2017-02-14T12:19:47.175Z,33.34
2017-02-14T12:21:39.443Z,34.92
2017-02-14T12:23:31.751Z,35.1
2017-02-14T12:25:34.091Z,34
2017-02-14T12:27:36.331Z,33.36
2017-02-14T12:29:33.531Z,32.21
2017-02-14T12:31:36.104Z,31.99
2017-02-14T12:33:38.431Z,31.75
2017-02-14T12:35:25.910Z,32.06
2017-02-14T12:37:33.189Z,33.54
2017-02-14T12:39:41.128Z,34.98
2017-02-14T12:41:38.749Z,34.15
2017-02-14T12:43:41.146Z,34.89
2017-02-14T12:45:38.504Z,37.16
2017-02-14T12:47:41.337Z,36.86
2017-02-14T12:49:33.733Z,37.45
2017-02-14T12:51:26.202Z,38.24
2017-02-14T12:53:28.552Z,38.32
2017-02-14T12:55:32.265Z,37.52
2017-02-14T12:57:24.479Z,37.15
2017-02-14T12:59:17.732Z,38.38
2017-02-14T13:01:10.033Z,38.23
2017-02-14T13:03:02.411Z,38.45
2017-02-14T13:05:04.639Z,40.17
2017-02-14T13:07:01.926Z,40.73
2017-02-14T13:08:59.219Z,40.95
2017-02-14T13:11:01.546Z,41.2
2017-02-14T13:13:00.591Z,41.27
2017-02-14T13:14:58.612Z,41.53
2017-02-14T13:16:56.093Z,41.23
2017-02-14T13:18:43.649Z,42
2017-02-14T13:20:45.962Z,42.53
2017-02-14T13:22:48.891Z,42.19
2017-02-14T13:24:41.459Z,42.77
2017-02-14T13:26:43.802Z,43.32
2017-02-14T13:28:36.914Z,43.56
2017-02-14T13:30:39.478Z,44.89
2017-02-14T13:32:37.129Z,44.64
2017-02-14T13:34:29.447Z,44.91
2017-02-14T13:36:26.849Z,45.06
2017-02-14T13:38:34.233Z,44.69
2017-02-14T13:40:26.523Z,44.14
2017-02-14T13:42:19.012Z,44.66
2017-02-14T13:44:31.208Z,44.12
2017-02-14T13:46:23.847Z,44.08
2017-02-14T13:48:26.311Z,43.89
2017-02-14T13:50:28.775Z,44.14
2017-02-14T13:52:31.166Z,43.93
2017-02-14T13:54:18.506Z,44.07
2017-02-14T13:56:15.816Z,44.08
2017-02-14T13:58:23.205Z,44
2017-02-14T14:00:35.685Z,43.94
2017-02-14T14:02:17.991Z,44.22
2017-02-14T14:04:20.457Z,44.4
2017-02-14T14:06:12.841Z,44.57
2017-02-14T14:08:05.114Z,44.74
2017-02-14T14:09:52.560Z,44.9
2017-02-14T14:11:44.966Z,44.88
2017-02-14T14:13:37.420Z,44.97
2017-02-14T14:15:29.756Z,45.04
2017-02-14T14:17:17.100Z,45.03
2017-02-14T14:19:19.346Z,45.41
2017-02-14T14:21:21.829Z,45.54
2017-02-14T14:23:14.187Z,45.72
2017-02-14T14:25:16.498Z,45.91
2017-02-14T14:27:09.116Z,46
2017-02-14T14:29:06.832Z,46.27
2017-02-14T14:31:04.166Z,46.43
2017-02-14T14:33:11.358Z,46.67
2017-02-14T14:35:13.956Z,46.61
2017-02-14T14:37:11.392Z,46.91
2017-02-14T14:38:58.705Z,47.07
2017-02-14T14:40:51.114Z,47.19
2017-02-14T14:42:43.496Z,47.47
2017-02-14T14:44:50.846Z,47.79
2017-02-14T14:46:48.175Z,48.27
2017-02-14T14:48:40.688Z,48.83
2017-02-14T14:50:38.031Z,49.26
2017-02-14T14:52:30.400Z,49.44
2017-02-14T14:54:22.739Z,49.59
2017-02-14T14:56:25.141Z,49.64
2017-02-14T14:58:17.581Z,49.77
2017-02-14T15:00:19.993Z,49.77
2017-02-14T15:02:22.361Z,50.08
2017-02-14T15:04:14.721Z,50.53
2017-02-14T15:06:11.995Z,51.06
2017-02-14T15:08:19.501Z,51.17
2017-02-14T15:10:17.031Z,51.12
2017-02-14T15:12:24.637Z,51.67
2017-02-14T15:14:22.155Z,52.2
2017-02-14T15:16:09.845Z,52.6
2017-02-14T15:18:07.184Z,53.08
2017-02-14T15:19:49.572Z,53.24
2017-02-14T15:21:51.936Z,53.02
2017-02-14T15:23:59.167Z,53.34
2017-02-14T15:25:51.585Z,54.02
2017-02-14T15:27:53.987Z,54.43
2017-02-14T15:29:56.414Z,54.58
2017-02-14T15:31:59.886Z,55.04
2017-02-14T15:33:52.276Z,55.26
2017-02-14T15:35:30.015Z,55.27
2017-02-14T15:37:32.517Z,55.46
2017-02-14T15:39:19.920Z,55.7
2017-02-14T15:41:12.307Z,55.97
2017-02-14T15:43:14.955Z,55.96
2017-02-14T15:45:07.506Z,55.6
2017-02-14T15:47:15.163Z,55.71
2017-02-14T15:49:12.718Z,56.4
2017-02-14T15:51:05.110Z,56.74
2017-02-14T15:53:07.565Z,56.86
2017-02-14T15:55:00.012Z,57.03
2017-02-14T15:57:02.421Z,57.27
2017-02-14T15:58:49.774Z,57.5
2017-02-14T16:00:42.227Z,57.72
2017-02-14T16:02:34.631Z,57.95
2017-02-14T16:04:17.023Z,58.16
2017-02-14T16:06:14.580Z,58.33
2017-02-14T16:08:16.982Z,58.51
2017-02-14T16:10:14.509Z,58.73
2017-02-14T16:12:11.935Z,58.93
2017-02-14T16:14:09.282Z,59.12
2017-02-14T16:16:11.819Z,59.29
2017-02-14T16:18:14.369Z,59.49
2017-02-14T16:20:06.974Z,59.7
2017-02-14T16:22:14.672Z,59.95
2017-02-14T16:24:12.326Z,60.19
2017-02-14T16:26:19.836Z,60.35
2017-02-14T16:28:27.257Z,60.48
2017-02-14T16:30:29.759Z,60.59
2017-02-14T16:32:27.739Z,60.7
2017-02-14T16:34:25.434Z,60.75
2017-02-14T16:36:22.949Z,60.8
2017-02-14T16:38:15.731Z,60.9
2017-02-14T16:40:28.496Z,60.97
2017-02-14T16:42:26.124Z,61.02
2017-02-14T16:44:33.449Z,61.09
2017-02-14T16:46:31.275Z,61.1
2017-02-14T16:48:33.658Z,61.07
2017-02-14T16:50:36.151Z,61.04
2017-02-14T16:52:33.514Z,60.99
2017-02-14T16:54:36.233Z,60.97
2017-02-14T16:56:28.846Z,60.96
2017-02-14T16:58:33.543Z,60.94
2017-02-14T17:00:46.898Z,60.96
2017-02-14T17:02:52.829Z,60.95
2017-02-14T17:04:50.400Z,60.93
2017-02-14T17:06:52.638Z,60.89
2017-02-14T17:08:40.074Z,60.86
2017-02-14T17:10:37.506Z,60.79
2017-02-14T17:12:30.034Z,60.76
2017-02-14T17:14:23.378Z,60.72
2017-02-14T17:16:20.684Z,60.7
2017-02-14T17:18:08.248Z,60.66
2017-02-14T17:20:11.026Z,60.62
2017-02-14T17:22:13.498Z,60.58
2017-02-14T17:24:21.358Z,60.49
2017-02-14T17:26:18.811Z,60.41
2017-02-14T17:28:16.262Z,60.36
2017-02-14T17:30:13.980Z,60.32
2017-02-14T17:32:17.692Z,60.23
2017-02-14T17:34:15.144Z,60.15
2017-02-14T17:36:12.545Z,60.09
2017-02-14T17:38:10.084Z,60.04
2017-02-14T17:40:07.571Z,59.99
2017-02-14T17:42:05.125Z,59.94
2017-02-14T17:44:07.459Z,59.9
2017-02-14T17:46:14.992Z,59.84
2017-02-14T17:48:12.666Z,59.79
2017-02-14T17:50:05.191Z,59.74
2017-02-14T17:52:02.737Z,59.69
2017-02-14T17:54:10.042Z,59.64
2017-02-14T17:56:17.455Z,59.61
2017-02-14T17:58:14.833Z,59.56
2017-02-14T18:00:07.255Z,59.5
2017-02-14T18:02:05.295Z,59.42
2017-02-14T18:04:08.084Z,59.38
2017-02-14T18:06:10.489Z,59.27
2017-02-14T18:08:12.806Z,59.18
2017-02-14T18:10:10.306Z,59.11
2017-02-14T18:12:07.914Z,59.05
2017-02-14T18:14:10.347Z,59.04
2017-02-14T18:16:23.198Z,59.02
2017-02-14T18:18:25.706Z,58.99
2017-02-14T18:20:33.139Z,58.96
2017-02-14T18:22:40.659Z,58.91
2017-02-14T18:24:28.240Z,58.91
2017-02-14T18:26:30.484Z,58.86
2017-02-14T18:28:33.584Z,58.8
2017-02-14T18:30:31.272Z,58.76
2017-02-14T18:32:44.616Z,58.7
2017-02-14T18:34:52.269Z,58.58
2017-02-14T18:36:50.655Z,58.44
2017-02-14T18:38:54.062Z,58.38
2017-02-14T18:40:42.197Z,58.37
2017-02-14T18:42:44.671Z,58.36
2017-02-14T18:44:52.291Z,58.36
2017-02-14T18:46:59.809Z,58.35
2017-02-14T18:49:10.323Z,58.33
2017-02-14T18:51:27.337Z,58.33
2017-02-14T18:53:57.109Z,58.32
2017-02-14T18:56:29.915Z,58.3
2017-02-14T18:59:13.261Z,58.26
2017-02-14T19:02:09.328Z,58.23
2017-02-14T19:05:09.003Z,58.11
2017-02-14T19:08:11.126Z,58.02
2017-02-14T19:11:10.031Z,57.96
2017-02-14T19:14:08.965Z,57.91
2017-02-14T19:16:23.961Z,57.91
2017-02-14T19:18:29.737Z,57.92
2017-02-14T19:20:41.274Z,57.86
2017-02-14T19:23:07.409Z,57.81
2017-02-14T19:25:34.813Z,57.77
2017-02-14T19:28:07.858Z,57.75
2017-02-14T19:30:52.628Z,57.71
2017-02-14T19:33:47.028Z,57.63
2017-02-14T19:36:38.681Z,57.59
2017-02-14T19:39:34.958Z,57.52
2017-02-14T19:42:28.536Z,57.49
2017-02-14T19:45:19.737Z,57.45
2017-02-14T19:48:15.063Z,57.42
2017-02-14T19:51:10.919Z,57.48
2017-02-14T19:54:07.800Z,57.42
2017-02-14T19:57:00.922Z,57.39
2017-02-14T20:00:02.634Z,57.38
2017-02-14T20:03:04.054Z,57.39
2017-02-14T20:06:08.718Z,57.33
2017-02-14T20:09:14.480Z,57.2
2017-02-14T20:12:29.993Z,57.16
2017-02-14T20:15:33.355Z,57.19
2017-02-14T20:18:29.362Z,57.13
2017-02-14T20:21:31.719Z,57.09
2017-02-14T20:24:33.190Z,57.03
2017-02-14T20:27:34.453Z,57.06
2017-02-14T20:30:37.439Z,57.08
2017-02-14T20:33:38.948Z,57.13
2017-02-14T20:36:44.879Z,57.15
2017-02-14T20:39:42.457Z,57.16
2017-02-14T20:42:42.442Z,57.14
2017-02-14T20:45:43.264Z,57.15
2017-02-14T20:48:43.525Z,57.09
2017-02-14T20:51:32.054Z,57.05
2017-02-14T20:54:25.452Z,57.1
2017-02-14T20:57:30.445Z,57.03
2017-02-14T21:00:08.044Z,56.95
2017-02-14T21:02:25.048Z,56.96
2017-02-14T21:04:37.388Z,56.93
2017-02-14T21:06:49.555Z,56.87
2017-02-14T21:09:00.854Z,56.9
2017-02-14T21:11:13.338Z,56.93
2017-02-14T21:13:24.898Z,56.9
2017-02-14T21:15:37.684Z,56.89
2017-02-14T21:17:48.674Z,56.92
2017-02-14T21:19:50.242Z,56.88
2017-02-14T21:22:01.327Z,56.87
2017-02-14T21:24:08.712Z,56.9
2017-02-14T21:26:16.475Z,56.86
2017-02-14T21:28:28.826Z,56.84
2017-02-14T21:30:34.308Z,56.8
2017-02-14T21:32:51.515Z,56.76
2017-02-14T21:35:04.241Z,56.75
2017-02-14T21:37:05.545Z,56.78
2017-02-14T21:38:58.500Z,56.78
2017-02-14T21:40:56.063Z,56.83
2017-02-14T21:42:58.573Z,56.81
2017-02-14T21:45:05.814Z,56.7
2017-02-14T21:47:18.250Z,56.66
2017-02-14T21:49:25.707Z,56.65
2017-02-14T21:51:32.987Z,56.68
2017-02-14T21:53:40.512Z,56.73
2017-02-14T21:55:48.052Z,56.75
2017-02-14T21:57:55.465Z,56.74
2017-02-14T21:59:57.830Z,56.74
2017-02-14T22:02:05.219Z,56.74
2017-02-14T22:03:57.814Z,56.72
2017-02-14T22:06:00.105Z,56.68
2017-02-14T22:07:57.427Z,56.68
2017-02-14T22:09:50.095Z,56.67
2017-02-14T22:11:37.640Z,56.7
2017-02-14T22:13:45.378Z,56.72
2017-02-14T22:15:45.085Z,56.75
2017-02-14T22:17:42.323Z,56.71
2017-02-14T22:19:35.986Z,56.71
2017-02-14T22:21:39.451Z,56.63
2017-02-14T22:23:21.806Z,56.63
2017-02-14T22:25:19.055Z,56.62
2017-02-14T22:27:16.924Z,56.59
2017-02-14T22:29:14.312Z,56.55
2017-02-14T22:31:11.880Z,56.57
2017-02-14T22:33:30.915Z,56.53
2017-02-14T22:35:39.462Z,56.46
2017-02-14T22:37:47.365Z,56.46
2017-02-14T22:40:29.015Z,56.48
2017-02-14T22:43:29.735Z,56.5
2017-02-14T22:46:27.608Z,56.5
2017-02-14T22:49:24.080Z,56.56
2017-02-14T22:52:11.647Z,56.55
2017-02-14T22:55:12.746Z,56.56
2017-02-14T22:57:50.671Z,56.62
2017-02-14T23:00:01.403Z,56.63
2017-02-14T23:02:10.885Z,56.63
2017-02-14T23:04:28.586Z,56.64
2017-02-14T23:06:49.783Z,56.63
2017-02-14T23:09:16.704Z,56.62
2017-02-14T23:11:41.196Z,56.6
2017-02-14T23:14:07.691Z,56.61
2017-02-14T23:16:47.067Z,56.64
2017-02-14T23:19:34.903Z,56.55
2017-02-14T23:22:27.258Z,56.47
2017-02-14T23:25:17.104Z,56.47
2017-02-14T23:28:09.970Z,56.5
2017-02-14T23:31:03.583Z,56.53
2017-02-14T23:33:28.267Z,56.54
2017-02-14T23:35:39.974Z,56.56
2017-02-14T23:37:56.167Z,56.54
2017-02-14T23:40:23.716Z,56.52
2017-02-14T23:42:49.261Z,56.54
2017-02-14T23:45:07.584Z,56.52
2017-02-14T23:47:28.237Z,56.52
2017-02-14T23:49:49.733Z,56.49
2017-02-14T23:52:08.294Z,56.47
2017-02-14T23:54:37.984Z,56.45
2017-02-14T23:56:56.266Z,56.46
2017-02-14T23:59:14.586Z,56.49
